Time;durP1;ratioP1;P1;durP2;ratioP2;P2;SDS_P1;SDS_P2;PMS_P1;PMS_P2;Temp;Humidity;BMP_temperature;BMP_pressure;BME280_temperature;BME280_humidity;BME280_pressure;Samples;Min_cycle;Max_cycle;Signal;HPM_P1;HPM_P2
2021/11/27 00:02:25;;;;;;;85.25;44.88;;;;;;;1.50;83.02;98371.45;1742914;82;20914;-73
2021/11/27 00:04:51;;;;;;;90.40;44.93;;;;;;;1.55;83.04;98367.03;1743023;81;20847;-73
2021/11/27 00:07:17;;;;;;;90.80;44.48;;;;;;;1.55;83.05;98367.83;1743117;81;21072;-73
2021/11/27 00:09:43;;;;;;;97.30;45.12;;;;;;;1.55;83.03;98365.20;1742602;81;21175;-73
2021/11/27 00:12:09;;;;;;;88.07;45.43;;;;;;;1.59;83.05;98369.15;1743008;82;20969;-73
2021/11/27 00:14:36;;;;;;;104.32;46.95;;;;;;;1.63;83.07;98364.39;1742866;82;21073;-73
2021/11/27 00:17:02;;;;;;;87.35;43.42;;;;;;;1.69;83.10;98367.70;1743096;82;21022;-73
2021/11/27 00:19:28;;;;;;;86.55;42.50;;;;;;;1.76;83.09;98370.00;1743109;81;21014;-74
2021/11/27 00:21:54;;;;;;;90.67;43.33;;;;;;;1.76;83.13;98365.54;1742790;82;21181;-73
2021/11/27 00:24:20;;;;;;;98.10;44.10;;;;;;;1.72;83.13;98367.37;1742885;82;21037;-73
2021/11/27 00:26:46;;;;;;;91.22;44.90;;;;;;;1.71;83.14;98356.52;1743086;81;20970;-73
2021/11/27 00:29:12;;;;;;;90.85;43.73;;;;;;;1.65;83.15;98359.81;1743162;82;20894;-73
2021/11/27 00:31:41;;;;;;;88.47;44.73;;;;;;;1.62;83.14;98354.37;1742745;81;21461;-73
2021/11/27 00:34:06;;;;;;;93.95;46.77;;;;;;;1.61;83.16;98351.92;1742770;82;21077;-73
2021/11/27 00:36:32;;;;;;;91.57;46.60;;;;;;;1.63;83.14;98353.89;1743053;81;21687;-73
2021/11/27 00:38:58;;;;;;;98.17;47.25;;;;;;;1.65;83.16;98348.81;1742837;81;20994;-73
2021/11/27 00:41:24;;;;;;;94.45;46.85;;;;;;;1.69;83.16;98348.00;1742967;82;20990;-73
2021/11/27 00:43:50;;;;;;;85.75;42.03;;;;;;;1.72;83.16;98355.55;1743022;82;20975;-73
2021/11/27 00:46:16;;;;;;;83.90;43.50;;;;;;;1.70;83.14;98349.62;1742815;81;21130;-73
2021/11/27 00:48:42;;;;;;;79.62;43.83;;;;;;;1.67;83.16;98349.95;1742519;82;20922;-73
2021/11/27 00:51:12;;;;;;;89.30;43.60;;;;;;;1.65;83.19;98355.88;1743126;81;21679;-73
2021/11/27 00:53:38;;;;;;;80.97;40.10;;;;;;;1.64;83.19;98350.28;1742327;82;21494;-73
2021/11/27 00:56:04;;;;;;;77.30;40.80;;;;;;;1.66;83.18;98356.18;1743273;82;21005;-73
2021/11/27 00:58:31;;;;;;;86.53;40.75;;;;;;;1.64;83.19;98352.91;1743134;82;21072;-73
2021/11/27 01:01:02;;;;;;;91.57;45.73;;;;;;;1.60;83.18;98352.41;1743148;81;21038;-73
2021/11/27 01:03:29;;;;;;;96.40;45.23;;;;;;;1.56;83.19;98347.64;1743033;81;21042;-73
2021/11/27 01:05:57;;;;;;;99.13;44.77;;;;;;;1.57;83.18;98344.04;1715680;82;21044;-73
2021/11/27 01:08:25;;;;;;;88.20;42.95;;;;;;;1.59;83.22;98342.05;1742814;82;21628;-73
2021/11/27 01:10:59;;;;;;;86.15;41.95;;;;;;;1.59;83.19;98340.25;1743061;81;21769;-73
2021/11/27 01:13:25;;;;;;;83.97;40.52;;;;;;;1.60;83.21;98347.16;1715994;82;21060;-73
2021/11/27 01:15:51;;;;;;;75.15;40.30;;;;;;;1.63;83.22;98335.50;1743213;82;20918;-73
2021/11/27 01:18:17;;;;;;;89.80;42.90;;;;;;;1.62;83.23;98337.30;1743222;82;20973;-73
2021/11/27 01:20:53;;;;;;;82.60;40.33;;;;;;;1.61;83.24;98340.11;1743261;82;21058;-73
2021/11/27 01:23:20;;;;;;;78.45;40.75;;;;;;;1.59;83.25;98335.48;1742872;81;21239;-73
2021/11/27 01:25:46;;;;;;;78.65;41.00;;;;;;;1.56;83.25;98331.39;1743090;81;21065;-73
2021/11/27 01:28:15;;;;;;;74.87;39.73;;;;;;;1.56;83.26;98333.20;1742968;82;21735;-73
2021/11/27 01:30:44;;;;;;;79.05;40.30;;;;;;;1.55;83.26;98333.69;1742838;81;21574;-73
2021/11/27 01:33:10;;;;;;;62.90;30.48;;;;;;;1.57;83.24;98331.73;1742581;82;20982;-74
2021/11/27 01:35:36;;;;;;;100.20;45.40;;;;;;;1.61;83.25;98337.48;1743117;82;20933;-73
2021/11/27 01:38:02;;;;;;;94.95;47.90;;;;;;;1.59;83.26;98336.80;1743052;82;21034;-73
2021/11/27 01:40:28;;;;;;;95.60;46.42;;;;;;;1.60;83.26;98329.27;1743124;81;20986;-73
2021/11/27 01:42:54;;;;;;;95.10;45.80;;;;;;;1.61;83.26;98330.42;1743109;82;20867;-73
2021/11/27 01:45:23;;;;;;;101.87;47.00;;;;;;;1.56;83.29;98325.31;1742493;81;21017;-73
2021/11/27 01:47:56;;;;;;;109.22;48.83;;;;;;;1.53;83.33;98327.78;1740046;82;21044;-73
2021/11/27 01:50:25;;;;;;;90.55;44.38;;;;;;;1.49;83.34;98323.36;1739278;82;21683;-73
2021/11/27 01:52:51;;;;;;;90.15;42.60;;;;;;;1.46;83.35;98325.00;1739834;81;21010;-73
2021/11/27 01:55:17;;;;;;;76.47;40.12;;;;;;;1.49;83.37;98322.04;1739961;82;20918;-73
2021/11/27 01:57:43;;;;;;;93.40;44.00;;;;;;;1.50;83.36;98322.87;1740049;82;20894;-73
2021/11/27 02:00:12;;;;;;;76.95;39.27;;;;;;;1.49;83.37;98311.53;1740185;81;21118;-73
2021/11/27 02:02:38;;;;;;;65.75;32.70;;;;;;;1.46;83.36;98313.18;1739983;82;21038;-73
2021/11/27 02:05:05;;;;;;;90.92;43.15;;;;;;;1.40;83.38;98315.16;1739814;82;20981;-73
2021/11/27 02:07:31;;;;;;;82.92;41.60;;;;;;;1.34;83.39;98318.41;1739731;82;21030;-73
2021/11/27 02:09:57;;;;;;;82.02;41.00;;;;;;;1.32;83.43;98316.45;1739652;81;21037;-73
2021/11/27 02:12:23;;;;;;;86.92;43.15;;;;;;;1.29;83.43;98315.47;1740106;82;21153;-73
2021/11/27 02:14:49;;;;;;;85.85;41.48;;;;;;;1.27;83.43;98311.34;1739810;82;21042;-73
2021/11/27 02:17:15;;;;;;;80.12;40.83;;;;;;;1.24;83.43;98309.87;1740031;82;20949;-73
2021/11/27 02:19:42;;;;;;;76.35;38.95;;;;;;;1.25;83.42;98310.20;1739537;82;21006;-73
2021/11/27 02:22:08;;;;;;;66.25;34.88;;;;;;;1.26;83.42;98314.48;1740095;82;21070;-73
2021/11/27 02:24:34;;;;;;;70.10;35.17;;;;;;;1.26;83.44;98310.55;1739825;82;21103;-73
2021/11/27 02:27:00;;;;;;;71.97;36.58;;;;;;;1.24;83.43;98315.61;1739942;82;21554;-73
2021/11/27 02:29:28;;;;;;;67.82;36.77;;;;;;;1.20;83.42;98312.97;1740076;81;21449;-73
2021/11/27 02:31:55;;;;;;;77.58;38.55;;;;;;;1.20;83.38;98320.36;1739929;82;21471;-73
2021/11/27 02:34:21;;;;;;;68.17;38.50;;;;;;;1.20;83.41;98321.67;1740118;82;21101;-73
2021/11/27 02:36:51;;;;;;;77.32;39.10;;;;;;;1.21;83.39;98324.64;1739745;81;21170;-73
2021/11/27 02:39:18;;;;;;;;;;;;;;;1.21;83.40;98316.77;1742374;81;21026;-73
2021/11/27 02:41:45;;;;;;;72.42;40.08;;;;;;;1.23;83.42;98318.72;1739936;82;20455;-73
2021/11/27 02:44:10;;;;;;;74.97;37.70;;;;;;;1.24;83.41;98319.05;1739788;81;20966;-73
2021/11/27 02:46:38;;;;;;;70.85;36.77;;;;;;;1.26;83.42;98320.22;1741377;81;20908;-73
2021/11/27 02:49:04;;;;;;;71.33;37.50;;;;;;;1.24;83.43;98324.31;1742912;81;21491;-73
2021/11/27 02:51:30;;;;;;;70.32;34.75;;;;;;;1.26;83.43;98324.98;1743235;82;20991;-73
2021/11/27 02:53:56;;;;;;;75.72;35.33;;;;;;;1.27;83.46;98321.36;1742718;81;21002;-73
2021/11/27 02:56:22;;;;;;;70.10;35.52;;;;;;;1.28;83.48;98319.06;1743167;82;21069;-73
2021/11/27 02:58:48;;;;;;;72.47;39.13;;;;;;;1.26;83.50;98324.98;1743011;82;21076;-73
2021/11/27 03:01:14;;;;;;;77.55;38.92;;;;;;;1.25;83.53;98319.88;1742949;82;21031;-73
2021/11/27 03:03:40;;;;;;;73.50;37.98;;;;;;;1.27;83.51;98318.73;1743071;81;20895;-73
2021/11/27 03:06:06;;;;;;;76.72;38.67;;;;;;;1.28;83.54;98320.38;1742833;81;20910;-73
2021/11/27 03:08:32;;;;;;;78.87;39.27;;;;;;;1.30;83.55;98317.09;1742669;82;21015;-73
2021/11/27 03:10:59;;;;;;;74.82;38.90;;;;;;;1.30;83.56;98311.84;1742674;82;21687;-73
2021/11/27 03:13:27;;;;;;;76.45;37.65;;;;;;;1.25;83.56;98318.09;1743141;82;21087;-73
2021/11/27 03:15:53;;;;;;;80.50;40.98;;;;;;;1.25;83.56;98319.39;1743011;82;21489;-73
2021/11/27 03:18:19;;;;;;;89.72;42.67;;;;;;;1.20;83.56;98312.48;1742931;81;20914;-73
2021/11/27 03:20:45;;;;;;;80.72;40.95;;;;;;;1.18;83.58;98313.15;1743053;82;20994;-73
2021/11/27 03:23:11;;;;;;;79.10;39.25;;;;;;;1.18;83.63;98310.52;1743054;81;21640;-73
2021/11/27 03:25:36;;;;;;;75.92;38.02;;;;;;;1.20;83.66;98313.80;1742986;82;21183;-73
2021/11/27 03:28:03;;;;;;;81.55;42.30;;;;;;;1.18;83.63;98306.59;1743274;82;21440;-73
2021/11/27 03:30:29;;;;;;;86.10;41.00;;;;;;;1.14;83.66;98301.33;1743219;82;21003;-73
2021/11/27 03:32:55;;;;;;;80.60;40.70;;;;;;;1.10;83.67;98298.69;1742671;81;21561;-74
2021/11/27 03:35:21;;;;;;;81.63;39.48;;;;;;;1.10;83.68;98297.87;1742972;82;21521;-73
2021/11/27 03:37:47;;;;;;;76.35;37.50;;;;;;;1.10;83.71;98293.44;1742854;82;21110;-73
2021/11/27 03:40:14;;;;;;;72.37;37.73;;;;;;;1.12;83.71;98300.69;1742939;82;21065;-74
2021/11/27 03:42:40;;;;;;;70.08;37.05;;;;;;;1.13;83.73;98295.74;1743044;82;20994;-73
2021/11/27 03:45:08;;;;;;;76.10;40.48;;;;;;;1.13;83.72;98302.30;1743046;82;20891;-73
2021/11/27 03:47:34;;;;;;;70.92;36.35;;;;;;;1.12;83.74;98303.31;1742154;81;21074;-73
2021/11/27 03:50:00;;;;;;;76.37;37.48;;;;;;;1.10;83.73;98305.26;1742966;82;21843;-73
2021/11/27 03:52:26;;;;;;;74.67;38.78;;;;;;;1.08;83.78;98311.17;1742844;82;20954;-73
2021/11/27 03:54:51;;;;;;;70.60;37.58;;;;;;;1.08;83.79;98309.86;1742873;81;21009;-73
2021/11/27 03:57:17;;;;;;;68.95;38.00;;;;;;;1.07;83.80;98302.95;1743092;82;21032;-73
2021/11/27 03:59:44;;;;;;;69.87;37.23;;;;;;;1.03;83.83;98300.32;1743039;82;20990;-73
2021/11/27 04:02:10;;;;;;;77.25;39.98;;;;;;;1.00;83.83;98298.02;1742690;82;21135;-73
2021/11/27 04:04:38;;;;;;;74.65;39.03;;;;;;;0.96;83.82;98290.14;1743027;82;20898;-73
2021/11/27 04:07:04;;;;;;;69.53;35.90;;;;;;;0.90;83.83;98292.10;1742826;82;21049;-73
2021/11/27 04:09:30;;;;;;;73.70;36.53;;;;;;;0.80;83.85;98303.23;1743035;81;21041;-73
2021/11/27 04:11:56;;;;;;;79.58;38.78;;;;;;;0.74;83.85;98293.39;1742629;82;21002;-73
2021/11/27 04:14:22;;;;;;;68.10;36.48;;;;;;;0.71;83.87;98304.17;1743179;82;21217;-74
2021/11/27 04:16:48;;;;;;;70.67;37.20;;;;;;;0.63;83.85;98301.55;1742947;82;20978;-73
2021/11/27 04:19:14;;;;;;;72.25;35.92;;;;;;;0.59;83.87;98297.11;1742971;82;20926;-73
2021/11/27 04:21:39;;;;;;;73.28;37.23;;;;;;;0.57;83.89;98303.46;1742973;82;20950;-73
2021/11/27 04:24:05;;;;;;;74.25;38.33;;;;;;;0.55;83.90;98309.37;1743146;81;20863;-73
2021/11/27 04:26:31;;;;;;;76.85;38.85;;;;;;;0.44;83.93;98302.13;1743328;81;21182;-73
2021/11/27 04:28:58;;;;;;;69.72;35.45;;;;;;;0.34;83.95;98309.30;1743042;82;20926;-73
2021/11/27 04:31:24;;;;;;;71.17;36.17;;;;;;;0.27;84.00;98316.14;1743089;82;21577;-73
2021/11/27 04:33:51;;;;;;;74.82;40.30;;;;;;;0.25;84.03;98318.55;1743127;81;21079;-73
2021/11/27 04:36:17;;;;;;;80.38;40.35;;;;;;;0.21;84.03;98314.63;1743202;81;20989;-73
2021/11/27 04:38:43;;;;;;;70.95;39.60;;;;;;;0.16;84.03;98309.84;1743218;82;21719;-73
2021/11/27 04:41:09;;;;;;;78.57;38.00;;;;;;;0.13;84.05;98311.47;1743163;82;21037;-73
2021/11/27 04:43:35;;;;;;;73.60;37.42;;;;;;;0.10;84.06;98308.34;1743193;82;20882;-73
2021/11/27 04:46:01;;;;;;;73.78;39.63;;;;;;;0.02;84.06;98314.35;1742900;80;21073;-73
2021/11/27 04:48:27;;;;;;;76.60;40.33;;;;;;;-0.07;84.06;98313.98;1739792;82;21005;-73
2021/11/27 04:50:53;;;;;;;78.75;37.70;;;;;;;-0.15;84.07;98312.61;1739872;82;21172;-73
2021/11/27 04:53:19;;;;;;;73.75;36.95;;;;;;;-0.22;84.08;98311.58;1739960;82;21643;-73
2021/11/27 04:55:45;;;;;;;89.58;45.43;;;;;;;-0.32;84.06;98309.55;1739963;82;21522;-73
2021/11/27 04:58:11;;;;;;;104.97;47.67;;;;;;;-0.41;84.08;98307.83;1739926;82;20895;-73
2021/11/27 05:00:44;;;;;;;91.02;45.55;;;;;;;-0.52;84.07;98308.88;1740196;81;20864;-73
2021/11/27 05:03:10;;;;;;;91.12;44.53;;;;;;;-0.61;84.05;98313.25;1739921;82;21883;-73
2021/11/27 05:05:36;;;;;;;95.70;45.48;;;;;;;-0.73;84.03;98314.44;1711111;82;20950;-73
2021/11/27 05:08:03;;;;;;;100.47;47.13;;;;;;;-0.79;84.03;98312.43;1739883;82;20998;-73
2021/11/27 05:10:29;;;;;;;90.75;43.80;;;;;;;-0.82;84.05;98314.52;1740071;82;20996;-73
2021/11/27 05:12:55;;;;;;;98.72;47.20;;;;;;;-0.88;84.05;98313.31;1736487;82;20945;-73
2021/11/27 05:15:21;;;;;;;88.20;43.30;;;;;;;-0.93;84.07;98312.95;1739880;82;21110;-73
2021/11/27 05:17:47;;;;;;;84.62;39.70;;;;;;;-0.94;84.10;98311.78;1739966;82;20904;-73
2021/11/27 05:20:13;;;;;;;95.77;44.73;;;;;;;-0.92;84.12;98317.22;1739722;82;20963;-73
2021/11/27 05:22:39;;;;;;;113.15;49.13;;;;;;;-0.94;84.12;98312.61;1739966;82;21558;-73
2021/11/27 05:25:06;;;;;;;120.17;53.50;;;;;;;-0.94;84.13;98316.53;1739870;82;21497;-73
2021/11/27 05:27:32;;;;;;;110.83;50.58;;;;;;;-0.97;84.15;98319.92;1739780;82;21962;-73
2021/11/27 05:29:58;;;;;;;110.72;51.58;;;;;;;-1.08;84.14;98317.04;1739678;82;21067;-73
2021/11/27 05:32:38;;;;;;;105.27;46.23;;;;;;;-1.20;84.10;98315.63;1739708;82;21035;-73
2021/11/27 05:34:53;;;;;;;99.65;47.98;;;;;;;-1.26;84.06;98324.03;1735467;82;21019;-73
2021/11/27 05:37:20;;;;;;;114.65;52.78;;;;;;;-1.34;84.08;98316.12;1739942;82;21017;-73
2021/11/27 05:39:46;;;;;;;95.85;43.50;;;;;;;-1.40;84.09;98317.98;1740361;82;21038;-73
2021/11/27 05:42:12;;;;;;;88.03;41.58;;;;;;;-1.44;84.12;98314.05;1739673;82;21016;-73
2021/11/27 05:44:38;;;;;;;78.07;38.35;;;;;;;-1.45;84.14;98320.23;1710516;82;21555;-73
2021/11/27 05:47:05;;;;;;;99.00;44.88;;;;;;;-1.44;84.14;98321.89;1740901;81;20983;-73
2021/11/27 05:49:31;;;;;;;95.67;43.75;;;;;;;-1.43;84.13;98314.36;1744167;82;20999;-73
2021/11/27 05:51:57;;;;;;;100.30;47.10;;;;;;;-1.41;84.14;98322.42;1743732;82;22009;-73
2021/11/27 05:54:22;;;;;;;102.97;43.68;;;;;;;-1.39;84.16;98323.56;1743468;82;20979;-73
2021/11/27 05:56:48;;;;;;;90.12;41.80;;;;;;;-1.39;84.17;98326.17;1744103;82;20908;-73
2021/11/27 05:59:14;;;;;;;95.10;43.60;;;;;;;-1.36;84.20;98331.11;1743769;82;21056;-73
2021/11/27 06:01:41;;;;;;;81.75;39.83;;;;;;;-1.42;84.21;98331.70;1744082;82;20999;-73
2021/11/27 06:04:07;;;;;;;82.27;39.63;;;;;;;-1.51;84.22;98331.59;1743716;82;21930;-73
2021/11/27 06:06:33;;;;;;;83.10;39.23;;;;;;;-1.55;84.21;98336.77;1743396;82;27238;-73
2021/11/27 06:09:00;;;;;;;74.10;34.83;;;;;;;-1.61;84.22;98340.44;1743356;82;21092;-73
2021/11/27 06:11:27;;;;;;;90.77;37.90;;;;;;;-1.63;84.23;98345.00;1743423;82;21008;-72
2021/11/27 06:13:54;;;;;;;76.53;37.83;;;;;;;-1.62;84.26;98346.66;1743830;82;21051;-73
2021/11/27 06:16:20;;;;;;;77.82;39.15;;;;;;;-1.60;84.29;98349.45;1744019;82;21119;-73
2021/11/27 06:18:46;;;;;;;81.75;38.10;;;;;;;-1.61;84.29;98350.41;1744137;82;20981;-73
2021/11/27 06:21:12;;;;;;;78.35;38.13;;;;;;;-1.61;84.33;98347.80;1743499;81;23840;-73
2021/11/27 06:23:38;;;;;;;75.00;38.28;;;;;;;-1.63;84.35;98348.44;1743796;82;20872;-73
2021/11/27 06:26:04;;;;;;;77.50;37.58;;;;;;;-1.69;84.35;98346.37;1743919;82;21003;-73
2021/11/27 06:28:31;;;;;;;73.90;37.20;;;;;;;-1.73;84.36;98358.59;1743814;82;21784;-73
2021/11/27 06:30:57;;;;;;;77.67;37.50;;;;;;;-1.74;84.38;98361.68;1743784;82;21014;-73
2021/11/27 06:33:23;;;;;;;77.35;38.50;;;;;;;-1.72;84.39;98366.27;1743937;82;26334;-73
2021/11/27 06:35:49;;;;;;;75.20;37.90;;;;;;;-1.76;84.41;98371.42;1743778;82;20896;-73
2021/11/27 06:38:15;;;;;;;74.60;36.48;;;;;;;-1.76;84.42;98374.04;1743870;82;20898;-73
2021/11/27 06:40:41;;;;;;;75.03;36.75;;;;;;;-1.76;84.43;98376.66;1743863;82;21817;-73
2021/11/27 06:43:07;;;;;;;72.62;34.13;;;;;;;-1.78;84.41;98375.98;1743656;82;26846;-73
2021/11/27 06:45:34;;;;;;;76.97;34.90;;;;;;;-1.82;84.42;98374.62;1743797;82;26727;-73
2021/11/27 06:48:00;;;;;;;70.15;36.58;;;;;;;-1.80;84.41;98379.23;1736453;80;21321;-73
2021/11/27 06:50:26;;;;;;;98.92;50.95;;;;;;;-1.81;84.41;98388.03;1730827;82;20999;-73
2021/11/27 06:52:51;;;;;;;92.37;45.98;;;;;;;-1.80;84.43;98390.98;1751456;82;21057;-73
2021/11/27 06:55:17;;;;;;;118.30;57.48;;;;;;;-1.80;84.44;98387.55;1751626;82;27489;-73
2021/11/27 06:57:43;;;;;;;158.20;72.03;;;;;;;-1.81;84.48;98385.89;1751646;82;25820;-73
2021/11/27 07:00:11;;;;;;;112.65;52.73;;;;;;;-1.82;84.49;98390.29;1751418;82;20951;-73
2021/11/27 07:02:37;;;;;;;103.80;52.17;;;;;;;-1.82;84.48;98391.59;1751628;82;21054;-73
2021/11/27 07:05:03;;;;;;;148.00;65.22;;;;;;;-1.81;84.45;98396.34;1751400;81;21202;-73
2021/11/27 07:07:29;;;;;;;140.82;64.45;;;;;;;-1.81;84.48;98403.70;1751258;81;21467;-73
2021/11/27 07:09:55;;;;;;;114.85;55.05;;;;;;;-1.78;84.51;98412.56;1751483;82;21038;-73
2021/11/27 07:12:21;;;;;;;127.87;57.27;;;;;;;-1.70;84.51;98411.38;1751393;82;20884;-73
2021/11/27 07:14:47;;;;;;;123.97;52.48;;;;;;;-1.55;84.47;98405.22;1751640;82;20987;-73
2021/11/27 07:17:13;;;;;;;108.92;52.67;;;;;;;-1.36;84.41;98412.14;1751173;81;21751;-73
2021/11/27 07:19:39;;;;;;;100.75;48.87;;;;;;;-1.10;84.32;98411.83;1751334;82;26908;-73
2021/11/27 07:22:05;;;;;;;98.52;44.25;;;;;;;-0.84;84.17;98421.92;1751564;82;25911;-73
2021/11/27 07:24:31;;;;;;;94.30;42.35;;;;;;;-0.78;84.13;98421.36;1751189;82;20974;-73
2021/11/27 07:26:59;;;;;;;82.27;35.20;;;;;;;-0.92;84.19;98421.86;1751563;82;20864;-73
2021/11/27 07:29:25;;;;;;;85.55;39.08;;;;;;;-1.05;84.31;98429.20;1751212;81;21551;-73
2021/11/27 07:31:51;;;;;;;73.67;35.65;;;;;;;-1.13;84.39;98429.13;1751558;82;21054;-73
2021/11/27 07:34:17;;;;;;;86.60;39.63;;;;;;;-1.13;84.47;98429.13;1751426;81;21051;-73
2021/11/27 07:36:43;;;;;;;93.78;41.60;;;;;;;-1.12;84.49;98439.42;1751446;82;21636;-73
2021/11/27 07:39:09;;;;;;;82.75;36.93;;;;;;;-1.07;84.54;98437.21;1751497;82;20979;-73
2021/11/27 07:41:36;;;;;;;80.77;37.48;;;;;;;-1.03;84.57;98441.19;1751606;82;21133;-73
2021/11/27 07:44:03;;;;;;;79.15;36.05;;;;;;;-1.02;84.61;98450.66;1751386;81;20979;-73
2021/11/27 07:46:29;;;;;;;77.92;33.25;;;;;;;-0.98;84.68;98449.05;1751531;81;21004;-73
2021/11/27 07:48:56;;;;;;;69.70;34.40;;;;;;;-0.95;84.72;98445.66;1744334;81;21077;-73
2021/11/27 07:51:22;;;;;;;71.22;34.53;;;;;;;-0.93;84.73;98441.13;1742941;82;21015;-73
2021/11/27 07:53:48;;;;;;;63.68;33.33;;;;;;;-0.87;84.75;98449.70;1743513;82;21194;-73
2021/11/27 07:56:14;;;;;;;71.65;35.43;;;;;;;-0.77;84.77;98450.94;1743005;82;20849;-73
2021/11/27 07:58:41;;;;;;;71.30;35.58;;;;;;;-0.68;84.80;98455.31;1743141;82;21062;-73
2021/11/27 08:01:07;;;;;;;59.33;32.53;;;;;;;-0.63;84.81;98446.04;1743230;82;20968;-72
2021/11/27 08:03:33;;;;;;;74.65;36.08;;;;;;;-0.57;84.81;98452.50;1743267;82;20980;-73
2021/11/27 08:05:59;;;;;;;69.55;35.52;;;;;;;-0.48;84.84;98461.23;1743311;82;21164;-73
2021/11/27 08:08:25;;;;;;;68.05;34.45;;;;;;;-0.39;84.86;98462.98;1743299;82;21024;-72
2021/11/27 08:10:51;;;;;;;71.30;35.43;;;;;;;-0.34;84.87;98464.66;1742876;82;21035;-73
2021/11/27 08:13:17;;;;;;;74.85;36.35;;;;;;;-0.27;84.92;98469.64;1743327;82;21590;-72
2021/11/27 08:15:43;;;;;;;70.45;35.25;;;;;;;-0.19;84.93;98464.48;1743272;82;21055;-73
2021/11/27 08:18:09;;;;;;;68.05;35.23;;;;;;;-0.11;84.94;98461.95;1742975;82;21123;-73
2021/11/27 08:20:35;;;;;;;82.37;35.70;;;;;;;-0.07;84.96;98460.68;1742966;82;20985;-73
2021/11/27 08:23:01;;;;;;;81.57;38.05;;;;;;;-0.03;84.96;98458.89;1743049;82;21355;-73
2021/11/27 08:25:27;;;;;;;97.95;49.10;;;;;;;0.08;84.99;98467.01;1742772;82;21052;-73
2021/11/27 08:27:53;;;;;;;100.65;50.40;;;;;;;0.16;84.98;98464.47;1743092;82;20897;-73
2021/11/27 08:30:19;;;;;;;90.92;44.13;;;;;;;0.24;84.99;98472.40;1742910;82;21111;-73
2021/11/27 08:32:49;;;;;;;91.63;41.73;;;;;;;0.29;85.01;98467.50;1743192;82;20928;-73
2021/11/27 08:35:16;;;;;;;85.83;40.35;;;;;;;0.36;85.02;98467.72;1742869;82;21058;-73
2021/11/27 08:37:43;;;;;;;77.78;39.63;;;;;;;0.41;85.00;98468.92;1743042;82;20904;-73
2021/11/27 08:40:10;;;;;;;75.37;36.03;;;;;;;0.49;85.00;98468.95;1742928;82;21012;-72
2021/11/27 08:42:36;;;;;;;65.15;32.85;;;;;;;0.57;85.03;98467.36;1742748;82;21820;-73
2021/11/27 08:45:06;;;;;;;67.62;35.73;;;;;;;0.65;85.02;98466.94;1742750;82;20975;-73
2021/11/27 08:47:32;;;;;;;66.60;35.13;;;;;;;0.73;85.03;98460.44;1742025;82;21012;-73
2021/11/27 08:50:00;;;;;;;73.22;36.88;;;;;;;0.84;85.03;98464.59;1739914;82;20908;-73
2021/11/27 08:52:27;;;;;;;82.53;41.53;;;;;;;0.94;85.03;98467.92;1739837;82;21008;-72
2021/11/27 08:54:53;;;;;;;91.50;43.87;;;;;;;1.04;85.04;98473.87;1739619;82;21115;-73
2021/11/27 08:57:19;;;;;;;121.07;49.20;;;;;;;1.11;85.04;98477.52;1739657;82;20975;-73
2021/11/27 08:59:45;;;;;;;166.88;64.92;;;;;;;1.15;85.04;98473.59;1739927;82;20900;-73
2021/11/27 09:02:11;;;;;;;122.35;49.58;;;;;;;1.20;85.03;98477.86;1739697;82;21023;-73
2021/11/27 09:04:37;;;;;;;79.85;36.40;;;;;;;1.28;85.02;98481.02;1739549;82;21496;-73
2021/11/27 09:07:03;;;;;;;81.95;39.65;;;;;;;1.32;85.00;98483.17;1739875;82;21191;-73
2021/11/27 09:09:30;;;;;;;65.90;33.67;;;;;;;1.41;85.00;98490.58;1739638;82;21008;-72
2021/11/27 09:11:56;;;;;;;146.55;63.13;;;;;;;1.44;84.99;98486.34;1739560;82;21098;-73
2021/11/27 09:14:22;;;;;;;130.82;55.98;;;;;;;1.46;85.00;98475.17;1739391;82;20880;-73
2021/11/27 09:16:51;;;;;;;67.80;36.15;;;;;;;1.52;84.98;98487.66;1740064;82;20897;-73
2021/11/27 09:19:17;;;;;;;76.60;37.85;;;;;;;1.46;84.94;98485.20;1739914;82;21152;-73
2021/11/27 09:21:43;;;;;;;99.22;49.42;;;;;;;1.40;84.94;98485.84;1739512;82;20971;-73
2021/11/27 09:24:09;;;;;;;83.35;42.08;;;;;;;1.36;84.90;98492.87;1740123;82;21031;-73
2021/11/27 09:26:37;;;;;;;64.55;32.88;;;;;;;1.37;84.89;98490.07;1739943;82;20900;-73
2021/11/27 09:29:05;;;;;;;67.97;34.60;;;;;;;1.42;84.88;98487.80;1740011;82;21020;-73
2021/11/27 09:31:31;;;;;;;83.92;40.80;;;;;;;1.42;84.85;98481.23;1739421;82;21692;-73
2021/11/27 09:33:57;;;;;;;68.65;34.55;;;;;;;1.45;84.85;98479.60;1739661;82;21519;-73
2021/11/27 09:36:24;;;;;;;153.82;56.20;;;;;;;1.53;84.83;98488.48;1738511;82;20904;-73
2021/11/27 09:38:50;;;;;;;114.65;43.20;;;;;;;1.59;84.83;98494.41;1715699;82;21014;-73
2021/11/27 09:41:28;;;;;;;90.95;40.17;;;;;;;1.62;84.79;98489.66;1705390;82;20959;-73
2021/11/27 09:43:57;;;;;;;78.47;37.23;;;;;;;1.65;84.74;98483.28;1710339;81;21137;-73
2021/11/27 09:46:24;;;;;;;67.30;34.03;;;;;;;1.68;84.73;98478.53;1736165;81;21039;-73
2021/11/27 09:48:54;;;;;;;64.17;32.93;;;;;;;1.72;84.71;98476.41;1750118;81;21113;-73
2021/11/27 09:51:24;;;;;;;80.12;37.20;;;;;;;1.72;84.68;98473.77;1720974;81;21197;-73
2021/11/27 09:53:50;;;;;;;61.65;32.95;;;;;;;1.77;84.70;98478.03;1737145;81;21690;-73
2021/11/27 09:56:18;;;;;;;55.73;27.82;;;;;;;1.87;84.67;98480.02;1733068;82;21127;-74
2021/11/27 09:58:44;;;;;;;57.60;29.92;;;;;;;1.86;84.63;98475.77;1725690;81;21022;-74
2021/11/27 10:01:10;;;;;;;72.05;37.53;;;;;;;1.90;84.63;98475.27;1724956;81;21034;-74
2021/11/27 10:03:36;;;;;;;114.35;54.35;;;;;;;1.97;84.61;98470.20;1740322;81;20968;-74
2021/11/27 10:06:02;;;;;;;67.75;34.55;;;;;;;1.95;84.59;98474.78;1683174;82;20982;-74
2021/11/27 10:08:28;;;;;;;104.45;55.52;;;;;;;2.00;84.57;98476.45;1740849;81;21023;-74
2021/11/27 10:10:54;;;;;;;95.92;52.13;;;;;;;2.00;84.52;98472.50;1732034;81;20899;-73
2021/11/27 10:13:21;;;;;;;121.42;70.90;;;;;;;1.98;84.50;98462.14;1736026;81;21668;-73
2021/11/27 10:15:47;;;;;;;160.18;87.90;;;;;;;2.03;84.47;98455.09;1740172;81;21058;-74
2021/11/27 10:18:19;;;;;;;59.35;34.08;;;;;;;2.05;84.42;98452.28;1737340;81;21080;-74
2021/11/27 10:20:45;;;;;;;60.43;30.50;;;;;;;2.14;84.39;98453.94;1729941;82;21897;-73
2021/11/27 10:23:11;;;;;;;66.55;35.70;;;;;;;2.18;84.34;98449.48;1733448;82;21515;-73
2021/11/27 10:25:39;;;;;;;54.23;29.82;;;;;;;2.23;84.31;98444.56;1733108;82;21500;-73
2021/11/27 10:28:16;;;;;;;66.67;30.50;;;;;;;2.32;84.28;98441.45;1719315;81;21017;-73
2021/11/27 10:30:46;;;;;;;58.48;31.90;;;;;;;2.40;84.22;98448.81;1746664;81;21053;-74
2021/11/27 10:33:13;;;;;;;53.52;29.40;;;;;;;2.48;84.16;98458.02;1752516;81;21827;-73
2021/11/27 10:35:54;;;;;;;64.22;30.85;;;;;;;2.55;84.12;98450.77;1707264;81;21578;-73
2021/11/27 10:38:20;;;;;;;66.90;32.85;;;;;;;2.59;84.10;98441.56;1740938;81;21053;-73
2021/11/27 10:40:57;;;;;;;68.45;35.30;;;;;;;2.65;84.06;98443.52;1742669;81;20995;-74
2021/11/27 10:43:23;;;;;;;60.67;33.58;;;;;;;2.72;84.03;98451.06;1745039;81;21061;-74
2021/11/27 10:45:49;;;;;;;65.80;36.00;;;;;;;2.84;84.01;98444.47;1749168;81;22093;-74
2021/11/27 10:48:18;;;;;;;61.18;32.50;;;;;;;2.91;83.94;98449.38;1753812;80;21080;-73
2021/11/27 10:50:49;;;;;;;69.92;37.83;;;;;;;2.93;83.89;98457.92;1758632;80;21093;-74
2021/11/27 10:53:20;;;;;;;168.82;76.55;;;;;;;2.97;83.84;98457.91;1750468;80;21486;-74
2021/11/27 10:55:46;;;;;;;175.25;82.42;;;;;;;3.05;83.81;98462.34;1751769;79;21061;-74
2021/11/27 10:58:13;;;;;;;144.55;71.42;;;;;;;3.12;83.76;98460.17;1742942;80;21168;-74
2021/11/27 11:00:48;;;;;;;166.43;93.80;;;;;;;3.16;83.68;98458.84;1747010;80;21030;-74
2021/11/27 11:03:36;;;;;;;67.22;37.33;;;;;;;3.21;83.64;98456.50;1739321;80;21598;-74
2021/11/27 11:06:22;;;;;;;65.10;33.78;;;;;;;3.19;83.56;98447.97;1733990;80;21021;-74
2021/11/27 11:08:57;;;;;;;81.00;38.53;;;;;;;3.23;83.47;98437.41;1718905;82;21522;-73
2021/11/27 11:11:27;;;;;;;52.58;27.37;;;;;;;3.25;83.37;98440.69;1653025;82;21259;-73
2021/11/27 11:13:59;;;;;;;57.75;31.00;;;;;;;3.30;83.30;98441.01;1717519;82;21593;-73
2021/11/27 11:16:28;;;;;;;60.38;30.20;;;;;;;3.29;83.18;98429.31;1726222;80;21564;-73
2021/11/27 11:19:20;;;;;;;50.60;23.33;;;;;;;3.33;83.09;98430.13;1693128;84;21032;-73
2021/11/27 11:22:09;;;;;;;54.05;29.95;;;;;;;3.36;83.00;98431.09;1703880;82;21078;-73